De Soto, Wisconsin
Current Conditions -  °F | °C
As of 11:34 PM on Wednesday 17 Dec 2014 (Local Time) from KY51 Reporting Station
Broken Clouds Broken Clouds  
Wind Chill: 15°   Ceiling: 2000
Heat Index: 15°   Visibility: 10mi
Dew Point: 13°   Wind: 3mph
Humidity: 91%   Direction: 300°WNW
Pressure: 30.29"   Gusts: NA
Location:  43.43°N, 91.2°W
Report Text: KY51 180534Z AUTO 30003KT 10SM BKN020 M09/M10 A3029 RMK AO1 T10931105
Loading
Personal Weather Stations






























Interactive Weather Map New forecast layout! Learn more

10-Day Weather Forecast

Advertisements
Track Severe Weather on mobile